createdAt,value
2022-12-11T00:00:31.367Z,81.18
2022-12-11T00:02:59.769Z,81.07
2022-12-11T00:05:29.042Z,81.06
2022-12-11T00:08:05.491Z,80.99
2022-12-11T00:10:37.906Z,81.20
2022-12-11T00:13:06.675Z,81.21
2022-12-11T00:15:34.525Z,81.15
2022-12-11T00:18:06.303Z,81.40
2022-12-11T00:20:34.882Z,81.20
2022-12-11T00:23:04.537Z,81.57
2022-12-11T00:25:33.088Z,81.40
2022-12-11T00:28:01.423Z,81.72
2022-12-11T00:30:30.485Z,81.24
2022-12-11T00:32:59.742Z,81.67
2022-12-11T00:35:29.006Z,81.75
2022-12-11T00:37:57.566Z,81.49
2022-12-11T00:40:26.377Z,81.38
2022-12-11T00:42:55.174Z,81.63
2022-12-11T00:45:23.715Z,81.65
2022-12-11T00:47:52.979Z,81.70
2022-12-11T00:50:21.601Z,81.38
2022-12-11T00:52:50.382Z,81.74
2022-12-11T00:55:19.948Z,81.62
2022-12-11T00:57:48.976Z,81.90
2022-12-11T01:00:18.535Z,81.81
2022-12-11T01:02:47.896Z,82.13
2022-12-11T01:05:18.482Z,81.80
2022-12-11T01:07:47.200Z,81.76
2022-12-11T01:10:24.889Z,81.75
2022-12-11T01:13:01.415Z,81.69
2022-12-11T01:15:36.457Z,81.91
2022-12-11T01:18:08.787Z,82.05
2022-12-11T01:20:40.842Z,82.34
2022-12-11T01:23:09.913Z,82.52
2022-12-11T01:25:41.617Z,82.29
2022-12-11T01:28:10.320Z,82.55
2022-12-11T01:30:38.713Z,82.37
2022-12-11T01:33:06.793Z,82.33
2022-12-11T01:35:35.006Z,82.53
2022-12-11T01:38:03.292Z,82.28
2022-12-11T01:40:31.039Z,82.31
2022-12-11T01:42:59.934Z,82.24
2022-12-11T01:45:36.691Z,82.21
2022-12-11T01:48:08.841Z,82.11
2022-12-11T01:50:51.782Z,82.39
2022-12-11T01:53:54.373Z,82.67
2022-12-11T01:56:24.085Z,82.35
2022-12-11T01:58:56.778Z,82.66
2022-12-11T02:02:13.240Z,82.56
2022-12-11T02:04:43.483Z,82.55
2022-12-11T02:07:12.820Z,82.64
2022-12-11T02:09:44.024Z,82.78
2022-12-11T02:12:12.178Z,82.86
2022-12-11T02:14:47.691Z,82.89
2022-12-11T02:17:18.400Z,83.09
2022-12-11T02:20:11.682Z,83.18
2022-12-11T02:22:58.673Z,83.12
2022-12-11T02:25:41.268Z,83.14
2022-12-11T02:28:14.877Z,83.25
2022-12-11T02:30:49.263Z,83.16
2022-12-11T02:33:22.845Z,83.01
2022-12-11T02:35:51.709Z,83.18
2022-12-11T02:38:32.203Z,83.19
2022-12-11T02:41:03.578Z,82.93
2022-12-11T02:43:34.219Z,83.12
2022-12-11T02:46:06.704Z,82.88
2022-12-11T02:48:35.653Z,83.12
2022-12-11T02:51:07.643Z,83.01
2022-12-11T02:53:41.750Z,82.82
2022-12-11T02:56:42.838Z,82.86
2022-12-11T02:59:16.269Z,82.97
2022-12-11T03:01:45.058Z,82.79
2022-12-11T03:04:13.267Z,82.62
2022-12-11T03:06:49.753Z,82.57
2022-12-11T03:09:18.897Z,82.52
2022-12-11T03:11:48.248Z,82.44
2022-12-11T03:14:16.801Z,82.71
2022-12-11T03:17:14.928Z,82.45
2022-12-11T03:20:32.592Z,82.75
2022-12-11T03:23:24.510Z,82.43
2022-12-11T03:25:54.969Z,82.41
2022-12-11T03:28:50.511Z,82.63
2022-12-11T03:31:29.200Z,82.62
2022-12-11T03:34:03.967Z,82.74
2022-12-11T03:36:37.048Z,82.70
2022-12-11T03:39:51.554Z,82.74
2022-12-11T03:42:23.377Z,82.05
2022-12-11T03:44:55.962Z,81.89
2022-12-11T03:47:26.767Z,81.89
2022-12-11T03:49:57.758Z,81.83
2022-12-11T03:52:28.383Z,82.02
2022-12-11T03:55:02.062Z,82.06
2022-12-11T03:57:35.597Z,81.76
2022-12-11T04:00:28.770Z,81.87
2022-12-11T04:03:16.163Z,81.40
2022-12-11T04:05:46.130Z,81.20
2022-12-11T04:08:14.301Z,81.35
2022-12-11T04:10:42.949Z,81.75
2022-12-11T04:13:12.027Z,81.22
2022-12-11T04:15:41.805Z,80.46
2022-12-11T04:18:29.528Z,80.09
2022-12-11T04:21:17.083Z,80.41
2022-12-11T04:24:04.554Z,79.66
2022-12-11T04:26:33.495Z,79.40
2022-12-11T04:29:03.208Z,79.56
2022-12-11T04:31:32.001Z,79.49
2022-12-11T04:34:00.826Z,79.70
2022-12-11T04:36:30.092Z,79.74
2022-12-11T04:38:59.286Z,80.01
2022-12-11T04:41:27.618Z,80.49
2022-12-11T04:43:56.690Z,80.52
2022-12-11T04:46:25.334Z,80.68
2022-12-11T04:48:57.363Z,80.65
2022-12-11T04:51:26.638Z,80.09
2022-12-11T04:53:55.394Z,79.32
2022-12-11T04:56:23.486Z,79.12
2022-12-11T04:58:52.801Z,79.09
2022-12-11T05:01:24.217Z,78.66
2022-12-11T05:03:53.204Z,78.67
2022-12-11T05:06:21.958Z,78.51
2022-12-11T05:08:51.460Z,78.64
2022-12-11T05:11:20.129Z,78.58
2022-12-11T05:13:49.397Z,78.63
2022-12-11T05:16:18.803Z,78.42
2022-12-11T05:18:48.494Z,78.07
2022-12-11T05:21:16.642Z,78.21
2022-12-11T05:23:45.121Z,78.37
2022-12-11T05:26:20.189Z,78.41
2022-12-11T05:28:53.645Z,78.49
2022-12-11T05:31:25.123Z,78.69
2022-12-11T05:33:54.253Z,78.69
2022-12-11T05:36:31.707Z,79.08
2022-12-11T05:39:01.998Z,79.13
2022-12-11T05:41:32.919Z,79.10
2022-12-11T05:44:01.468Z,79.47
2022-12-11T05:46:31.451Z,79.05
2022-12-11T05:49:01.968Z,78.87
2022-12-11T05:51:31.716Z,78.68
2022-12-11T05:54:00.791Z,78.39
2022-12-11T05:56:31.654Z,78.62
2022-12-11T05:59:01.233Z,78.59
2022-12-11T06:01:42.343Z,78.38
2022-12-11T06:04:12.880Z,78.30
2022-12-11T06:06:41.784Z,78.20
2022-12-11T06:09:14.165Z,78.24
2022-12-11T06:11:42.856Z,78.15
2022-12-11T06:14:12.602Z,77.98
2022-12-11T06:16:41.302Z,78.21
2022-12-11T06:19:37.185Z,77.98
2022-12-11T06:22:06.197Z,78.14
2022-12-11T06:24:34.920Z,78.39
2022-12-11T06:27:03.457Z,78.09
2022-12-11T06:29:32.366Z,78.08
2022-12-11T06:32:01.352Z,77.87
2022-12-11T06:34:30.583Z,77.97
2022-12-11T06:36:59.130Z,78.00
2022-12-11T06:39:27.773Z,78.00
2022-12-11T06:41:56.423Z,78.27
2022-12-11T06:44:25.500Z,78.05
2022-12-11T06:46:53.330Z,78.20
2022-12-11T06:49:22.737Z,78.67
2022-12-11T06:51:52.480Z,78.53
2022-12-11T06:54:21.039Z,78.58
2022-12-11T06:56:49.335Z,78.67
2022-12-11T06:59:18.456Z,78.54
2022-12-11T07:01:47.963Z,78.58
2022-12-11T07:04:16.806Z,78.40
2022-12-11T07:06:47.799Z,78.56
2022-12-11T07:09:16.534Z,78.65
2022-12-11T07:11:45.492Z,78.82
2022-12-11T07:14:14.358Z,78.87
2022-12-11T07:16:43.535Z,79.13
2022-12-11T07:19:12.559Z,79.33
2022-12-11T07:21:41.960Z,79.36
2022-12-11T07:24:10.648Z,79.54
2022-12-11T07:26:40.144Z,79.58
2022-12-11T07:29:08.525Z,79.20
2022-12-11T07:31:37.180Z,78.90
2022-12-11T07:34:07.806Z,78.87
2022-12-11T07:36:36.700Z,79.04
2022-12-11T07:39:05.744Z,79.07
2022-12-11T07:41:34.385Z,79.35
2022-12-11T07:44:02.989Z,79.69
2022-12-11T07:46:32.966Z,79.71
2022-12-11T07:49:03.917Z,79.77
2022-12-11T07:51:35.874Z,79.94
2022-12-11T07:54:09.850Z,79.80
2022-12-11T07:56:37.820Z,79.83
2022-12-11T07:59:07.539Z,79.60
2022-12-11T08:01:37.947Z,79.77
2022-12-11T08:04:09.105Z,79.87
2022-12-11T08:06:40.022Z,79.73
2022-12-11T08:09:10.015Z,79.51
2022-12-11T08:11:39.245Z,79.54
2022-12-11T08:14:09.116Z,79.48
2022-12-11T08:16:38.135Z,79.41
2022-12-11T08:19:06.612Z,79.46
2022-12-11T08:21:35.226Z,79.61
2022-12-11T08:24:04.301Z,79.62
2022-12-11T08:26:33.222Z,79.59
2022-12-11T08:29:03.058Z,79.44
2022-12-11T08:31:31.782Z,79.22
2022-12-11T08:34:00.298Z,79.21
2022-12-11T08:36:28.978Z,79.13
2022-12-11T08:38:57.504Z,79.05
2022-12-11T08:41:28.482Z,79.02
2022-12-11T08:44:00.533Z,78.80
2022-12-11T08:46:31.721Z,78.78
2022-12-11T08:49:00.184Z,78.85
2022-12-11T08:51:30.109Z,78.77
2022-12-11T08:54:01.225Z,78.59
2022-12-11T08:56:30.814Z,78.58
2022-12-11T08:59:03.037Z,78.66
2022-12-11T09:01:31.952Z,78.65
2022-12-11T09:04:00.744Z,78.44
2022-12-11T09:06:30.993Z,78.41
2022-12-11T09:09:00.807Z,78.46
2022-12-11T09:11:31.830Z,78.52
2022-12-11T09:14:06.723Z,78.49
2022-12-11T09:16:57.221Z,78.59
2022-12-11T09:19:32.094Z,78.51
2022-12-11T09:22:01.128Z,78.51
2022-12-11T09:24:29.724Z,78.29
2022-12-11T09:26:58.409Z,77.90
2022-12-11T09:29:26.735Z,78.15
2022-12-11T09:31:55.427Z,78.27
2022-12-11T09:34:29.100Z,78.19
2022-12-11T09:36:58.271Z,78.41
2022-12-11T09:39:26.888Z,78.40
2022-12-11T09:42:19.124Z,78.30
2022-12-11T09:44:52.656Z,78.39
2022-12-11T09:47:25.638Z,78.62
2022-12-11T09:50:20.800Z,78.83
2022-12-11T09:53:05.355Z,78.98
2022-12-11T09:56:18.301Z,79.01
2022-12-11T09:58:58.135Z,78.92
2022-12-11T10:01:51.043Z,79.03
2022-12-11T10:04:53.345Z,79.00
2022-12-11T10:07:53.189Z,78.91
2022-12-11T10:10:20.920Z,78.85
2022-12-11T10:12:55.887Z,78.55
2022-12-11T10:15:38.625Z,78.54
2022-12-11T10:18:13.768Z,78.48
2022-12-11T10:20:43.430Z,78.57
2022-12-11T10:23:23.286Z,78.60
2022-12-11T10:26:03.342Z,78.58
2022-12-11T10:28:32.537Z,78.68
2022-12-11T10:31:06.438Z,78.75
2022-12-11T10:34:14.137Z,78.57
2022-12-11T10:36:44.550Z,78.58
2022-12-11T10:39:16.347Z,78.65
2022-12-11T10:41:47.373Z,78.60
2022-12-11T10:44:26.664Z,78.62
2022-12-11T10:47:15.577Z,78.25
2022-12-11T10:49:53.209Z,77.86
2022-12-11T10:52:24.691Z,77.86
2022-12-11T10:55:08.763Z,77.61
2022-12-11T10:57:39.403Z,77.10
2022-12-11T11:00:27.060Z,76.80
2022-12-11T11:02:57.238Z,77.09
2022-12-11T11:05:38.566Z,77.20
2022-12-11T11:08:24.062Z,77.15
2022-12-11T11:10:52.096Z,77.07
2022-12-11T11:13:23.141Z,76.73
2022-12-11T11:16:13.114Z,76.87
2022-12-11T11:18:43.973Z,76.72
2022-12-11T11:21:20.954Z,76.42
2022-12-11T11:23:53.194Z,76.25
2022-12-11T11:26:23.285Z,76.11
2022-12-11T11:28:58.025Z,75.93
2022-12-11T11:31:36.514Z,75.81
2022-12-11T11:34:10.799Z,76.23
2022-12-11T11:36:39.720Z,76.13
2022-12-11T11:39:13.607Z,76.42
2022-12-11T11:41:50.952Z,76.00
2022-12-11T11:44:48.535Z,75.41
2022-12-11T11:47:38.211Z,75.17
2022-12-11T11:50:26.569Z,75.36
2022-12-11T11:53:20.497Z,75.41
2022-12-11T11:56:02.048Z,75.17
2022-12-11T11:59:28.446Z,75.27
2022-12-11T12:01:58.068Z,75.21
2022-12-11T12:04:33.054Z,75.24
2022-12-11T12:07:25.805Z,75.41
2022-12-11T12:10:16.996Z,75.37
2022-12-11T12:13:48.171Z,75.30
2022-12-11T12:16:51.697Z,75.33
2022-12-11T12:19:28.973Z,75.05
2022-12-11T12:21:58.193Z,75.17
2022-12-11T12:24:35.796Z,75.20
2022-12-11T12:27:50.572Z,75.52
2022-12-11T12:30:14.066Z,75.47
2022-12-11T12:33:04.723Z,75.72
2022-12-11T12:35:37.612Z,75.44
2022-12-11T12:38:12.185Z,75.67
2022-12-11T12:40:58.303Z,75.35
2022-12-11T12:43:44.059Z,75.29
2022-12-11T12:46:57.160Z,75.24
2022-12-11T12:49:41.513Z,73.53
2022-12-11T12:52:34.505Z,74.01
2022-12-11T12:55:19.115Z,74.48
2022-12-11T12:58:26.367Z,74.91
2022-12-11T13:00:54.944Z,75.56
2022-12-11T13:03:23.332Z,75.88
2022-12-11T13:06:04.173Z,76.29
2022-12-11T13:08:39.646Z,76.28
2022-12-11T13:11:13.695Z,75.42
2022-12-11T13:14:22.781Z,74.53
2022-12-11T13:16:53.063Z,74.59
2022-12-11T13:19:23.406Z,74.32
2022-12-11T13:22:15.040Z,74.74
2022-12-11T13:24:49.076Z,74.71
2022-12-11T13:27:26.159Z,74.91
2022-12-11T13:30:05.875Z,74.80
2022-12-11T13:32:34.694Z,75.00
2022-12-11T13:35:07.758Z,75.40
2022-12-11T13:37:35.546Z,75.12
2022-12-11T13:40:09.236Z,75.07
2022-12-11T13:42:49.026Z,74.60
2022-12-11T13:45:27.960Z,74.16
2022-12-11T13:47:59.144Z,74.40
2022-12-11T13:50:32.392Z,74.55
2022-12-11T13:53:02.205Z,74.25
2022-12-11T13:55:32.887Z,74.67
2022-12-11T13:58:02.539Z,74.44
2022-12-11T14:00:33.626Z,74.76
2022-12-11T14:03:07.614Z,74.78
2022-12-11T14:05:36.940Z,74.56
2022-12-11T14:08:10.625Z,74.64
2022-12-11T14:10:40.728Z,74.96
2022-12-11T14:13:20.919Z,74.75
2022-12-11T14:15:49.756Z,74.99
2022-12-11T14:18:25.147Z,74.78
2022-12-11T14:21:21.942Z,75.07
2022-12-11T14:23:59.244Z,75.47
2022-12-11T14:26:38.750Z,75.49
2022-12-11T14:29:07.910Z,75.35
2022-12-11T14:31:43.916Z,75.47
2022-12-11T14:34:26.744Z,76.86
2022-12-11T14:36:57.081Z,76.43
2022-12-11T14:39:30.926Z,75.96
2022-12-11T14:42:05.523Z,76.11
2022-12-11T14:44:41.218Z,75.82
2022-12-11T14:47:38.625Z,76.19
2022-12-11T14:50:13.065Z,75.51
2022-12-11T14:52:48.189Z,75.29
2022-12-11T14:55:41.442Z,75.57
2022-12-11T14:58:21.553Z,75.71
2022-12-11T15:01:06.453Z,75.48
2022-12-11T15:03:39.866Z,75.66
2022-12-11T15:06:30.419Z,75.47
2022-12-11T15:08:58.733Z,75.81
2022-12-11T15:11:32.906Z,75.21
2022-12-11T15:14:05.310Z,75.23
2022-12-11T15:16:38.203Z,75.21
2022-12-11T15:19:07.318Z,75.47
2022-12-11T15:21:37.214Z,75.19
2022-12-11T15:24:07.941Z,74.67
2022-12-11T15:26:46.325Z,74.68
2022-12-11T15:29:35.162Z,74.67
2022-12-11T15:32:09.111Z,75.15
2022-12-11T15:34:57.829Z,74.92
2022-12-11T15:37:28.873Z,74.60
2022-12-11T15:39:59.291Z,74.55
2022-12-11T15:42:31.812Z,74.15
2022-12-11T15:45:00.758Z,74.39
2022-12-11T15:47:32.104Z,74.66
2022-12-11T15:50:35.970Z,74.36
2022-12-11T15:53:06.989Z,74.56
2022-12-11T15:55:35.514Z,74.65
2022-12-11T15:58:08.461Z,74.86
2022-12-11T16:00:37.248Z,75.03
2022-12-11T16:03:06.881Z,75.14
2022-12-11T16:05:35.437Z,75.44
2022-12-11T16:08:03.654Z,75.30
2022-12-11T16:10:33.040Z,75.48
2022-12-11T16:13:02.856Z,75.42
2022-12-11T16:15:32.336Z,75.29
2022-12-11T16:18:05.310Z,75.38
2022-12-11T16:20:34.854Z,75.42
2022-12-11T16:23:02.716Z,75.57
2022-12-11T16:25:30.385Z,75.76
2022-12-11T16:28:01.358Z,75.98
2022-12-11T16:30:30.576Z,75.85
2022-12-11T16:32:59.541Z,75.78
2022-12-11T16:35:30.215Z,75.63
2022-12-11T16:37:59.662Z,75.79
2022-12-11T16:40:29.070Z,75.47
2022-12-11T16:42:58.502Z,75.59
2022-12-11T16:45:27.237Z,75.95
2022-12-11T16:47:55.771Z,75.71
2022-12-11T16:50:24.898Z,75.60
2022-12-11T16:52:52.448Z,75.69
2022-12-11T16:55:22.429Z,75.84
2022-12-11T16:57:50.713Z,75.83
2022-12-11T17:00:21.217Z,75.72
2022-12-11T17:02:50.751Z,76.04
2022-12-11T17:05:19.859Z,76.06
2022-12-11T17:07:48.917Z,75.73
2022-12-11T17:10:17.760Z,76.06
2022-12-11T17:12:47.009Z,76.05
2022-12-11T17:15:16.224Z,76.05
2022-12-11T17:17:45.402Z,75.66
2022-12-11T17:20:14.360Z,75.87
2022-12-11T17:22:43.026Z,75.71
2022-12-11T17:25:13.230Z,75.82
2022-12-11T17:27:42.443Z,75.30
2022-12-11T17:30:14.437Z,75.54
2022-12-11T17:32:42.653Z,75.79
2022-12-11T17:35:12.080Z,75.77
2022-12-11T17:37:40.902Z,75.92
2022-12-11T17:40:11.421Z,76.30
2022-12-11T17:42:39.923Z,76.17
2022-12-11T17:45:11.206Z,76.02
2022-12-11T17:47:40.706Z,75.72
2022-12-11T17:50:11.200Z,75.63
2022-12-11T17:52:44.116Z,75.57
2022-12-11T17:55:12.541Z,75.81
2022-12-11T17:57:41.866Z,75.69
2022-12-11T18:00:14.194Z,75.47
2022-12-11T18:02:43.602Z,75.61
2022-12-11T18:05:13.478Z,75.61
2022-12-11T18:07:42.429Z,75.47
2022-12-11T18:10:12.467Z,75.96
2022-12-11T18:12:40.986Z,75.84
2022-12-11T18:15:11.067Z,76.02
2022-12-11T18:17:39.817Z,75.47
2022-12-11T18:20:34.027Z,75.61
2022-12-11T18:23:02.922Z,75.51
2022-12-11T18:25:31.512Z,75.16
2022-12-11T18:28:00.299Z,74.78
2022-12-11T18:30:29.049Z,75.05
2022-12-11T18:32:57.245Z,74.92
2022-12-11T18:35:25.645Z,74.92
2022-12-11T18:37:54.410Z,75.05
2022-12-11T18:40:23.029Z,75.30
2022-12-11T18:42:51.534Z,75.06
2022-12-11T18:45:20.075Z,75.14
2022-12-11T18:47:48.301Z,74.89
2022-12-11T18:50:17.280Z,75.11
2022-12-11T18:52:46.827Z,75.02
2022-12-11T18:55:15.670Z,74.95
2022-12-11T18:57:44.733Z,75.04
2022-12-11T19:00:15.751Z,75.02
2022-12-11T19:02:44.130Z,75.05
2022-12-11T19:05:14.082Z,74.54
2022-12-11T19:07:42.735Z,74.93
2022-12-11T19:10:12.586Z,75.05
2022-12-11T19:12:43.140Z,75.20
2022-12-11T19:15:13.953Z,74.98
2022-12-11T19:17:43.578Z,75.06
2022-12-11T19:20:40.457Z,74.65
2022-12-11T19:23:02.126Z,74.51
2022-12-11T19:25:30.753Z,74.77
2022-12-11T19:27:59.888Z,74.83
2022-12-11T19:30:28.174Z,74.53
2022-12-11T19:32:58.349Z,74.23
2022-12-11T19:35:27.625Z,74.55
2022-12-11T19:37:57.520Z,74.82
2022-12-11T19:40:26.733Z,74.62
2022-12-11T19:42:55.574Z,74.83
2022-12-11T19:45:24.526Z,74.67
2022-12-11T19:47:53.960Z,74.59
2022-12-11T19:50:26.561Z,74.85
2022-12-11T19:52:55.270Z,74.57
2022-12-11T19:55:23.989Z,74.86
2022-12-11T19:57:51.753Z,75.00
2022-12-11T20:00:21.388Z,74.65
2022-12-11T20:02:51.105Z,74.91
2022-12-11T20:05:20.438Z,73.71
2022-12-11T20:07:49.105Z,74.02
2022-12-11T20:10:17.492Z,73.18
2022-12-11T20:12:46.108Z,72.95
2022-12-11T20:15:17.241Z,72.75
2022-12-11T20:17:46.036Z,72.41
2022-12-11T20:20:14.139Z,72.03
2022-12-11T20:22:43.561Z,72.13
2022-12-11T20:25:12.130Z,72.46
2022-12-11T20:27:41.181Z,72.56
2022-12-11T20:30:11.188Z,72.61
2022-12-11T20:32:40.697Z,72.64
2022-12-11T20:35:10.612Z,73.01
2022-12-11T20:37:39.760Z,72.87
2022-12-11T20:40:11.392Z,72.60
2022-12-11T20:42:40.432Z,72.71
2022-12-11T20:45:11.556Z,72.46
2022-12-11T20:47:40.961Z,72.31
2022-12-11T20:50:16.264Z,72.27
2022-12-11T20:52:45.018Z,72.40
2022-12-11T20:55:14.186Z,72.13
2022-12-11T20:57:45.362Z,71.98
2022-12-11T21:00:16.282Z,71.77
2022-12-11T21:02:45.987Z,72.08
2022-12-11T21:05:14.857Z,72.04
2022-12-11T21:07:44.676Z,72.04
2022-12-11T21:10:14.368Z,72.02
2022-12-11T21:12:43.449Z,71.76
2022-12-11T21:15:13.292Z,71.65
2022-12-11T21:17:42.328Z,71.51
2022-12-11T21:20:13.243Z,71.31
2022-12-11T21:22:42.185Z,71.81
2022-12-11T21:25:11.995Z,71.89
2022-12-11T21:27:40.042Z,72.02
2022-12-11T21:30:11.040Z,72.02
2022-12-11T21:32:39.845Z,71.97
2022-12-11T21:35:10.004Z,71.78
2022-12-11T21:37:41.181Z,71.76
2022-12-11T21:40:12.048Z,71.65
2022-12-11T21:42:40.212Z,71.70
2022-12-11T21:47:59.402Z,71.89
2022-12-11T21:50:27.928Z,72.04
2022-12-11T21:52:56.002Z,71.88
2022-12-11T21:55:24.808Z,71.79
2022-12-11T21:57:54.712Z,71.81
2022-12-11T22:00:25.167Z,71.94
2022-12-11T22:02:53.953Z,71.59
2022-12-11T22:05:22.434Z,71.44
2022-12-11T22:07:51.356Z,71.71
2022-12-11T22:10:20.088Z,71.80
2022-12-11T22:12:49.029Z,71.43
2022-12-11T22:15:18.426Z,71.26
2022-12-11T22:17:47.335Z,71.51
2022-12-11T22:20:15.908Z,71.55
2022-12-11T22:22:44.855Z,71.31
2022-12-11T22:25:14.055Z,71.58
2022-12-11T22:27:45.130Z,71.41
2022-12-11T22:30:14.652Z,71.62
2022-12-11T22:32:43.609Z,71.42
2022-12-11T22:35:13.332Z,71.41
2022-12-11T22:37:42.310Z,71.41
2022-12-11T22:40:11.290Z,71.44
2022-12-11T22:42:40.617Z,71.24
2022-12-11T22:45:14.480Z,71.08
2022-12-11T22:47:42.477Z,70.74
2022-12-11T22:50:12.866Z,70.43
2022-12-11T22:52:41.475Z,70.32
2022-12-11T22:55:10.776Z,70.29
2022-12-11T22:57:40.440Z,70.19
2022-12-11T23:00:15.560Z,69.91
2022-12-11T23:02:43.990Z,69.98
2022-12-11T23:05:12.863Z,69.96
2022-12-11T23:07:42.355Z,69.71
2022-12-11T23:10:13.360Z,69.24
2022-12-11T23:12:42.712Z,69.49
2022-12-11T23:15:11.677Z,69.69
2022-12-11T23:17:40.800Z,70.06
2022-12-11T23:20:11.023Z,69.94
2022-12-11T23:22:39.930Z,69.66
2022-12-11T23:25:11.246Z,69.58
2022-12-11T23:27:40.580Z,69.43
2022-12-11T23:30:10.330Z,69.03
2022-12-11T23:32:39.936Z,68.81
2022-12-11T23:35:10.759Z,69.03
2022-12-11T23:37:40.649Z,69.44
2022-12-11T23:40:14.607Z,69.69
2022-12-11T23:42:43.496Z,69.64
2022-12-11T23:45:13.387Z,69.55
2022-12-11T23:47:42.680Z,69.72
2022-12-11T23:50:11.387Z,69.72
2022-12-11T23:52:40.391Z,69.65
2022-12-11T23:55:11.178Z,69.53
2022-12-11T23:57:39.407Z,69.20
